If you wish to contribute or participate in the discussions about articles you are invited to join SKYbrary as a registered user

 Actions

Ningbo Lishe International

From SKYbrary Wiki

ZSNB
Airport
ICAO: ZSNB
Summary
Name Ningbo Lishe International
Region Asia and Pacific
Territory China CN.gif
Location Ningbo, Yangtze River
Serving
Coordinates 29° 49' 36.00" N, 121° 27' 43.00" E
Runways
Designator Length Width Surface ROPS
13/31 3200 m10,498.688 ft
45 m147.638 ft
CON yes/yes


METAR
Observation ZSNB 250600Z 17010MPS 9999 SCT040 28/19 Q1010 NOSIG
Station NINGBO/LISHE
Date/Time 25 May 2019 06:00:00
Wind direction 170°
Wind speed kts
Lowest cloud amount scattered clouds
Temperature 28°C
Dew point 19°C
Humidity 58%
QNH 1010 hPa
Weather condition n/a

Ningbo Lishe International Airport (IATA: NGB) is the principal airport serving Ningbo, a major city in the Yangtze River Delta region.